Time;durP1;ratioP1;P1;durP2;ratioP2;P2;SDS_P1;SDS_P2;PMS_P1;PMS_P2;Temp;Humidity;BMP_temperature;BMP_pressure;BME280_temperature;BME280_humidity;BME280_pressure;Samples;Min_cycle;Max_cycle;Signal;HPM_P1;HPM_P2
2022/01/18 00:00:10;;;;;;;23.20;15.60;;;;;;;-2.51;100.00;100004.59;105256;1271;69951;-77
2022/01/18 00:02:58;;;;;;;26.30;15.50;;;;;;;-2.51;100.00;100010.33;105214;1271;75534;-76
2022/01/18 00:05:26;;;;;;;28.60;16.40;;;;;;;-2.50;100.00;100014.85;105215;1271;61334;-76
2022/01/18 00:07:53;;;;;;;33.30;18.80;;;;;;;-2.53;100.00;100014.33;105227;1271;61302;-75
2022/01/18 00:10:23;;;;;;;27.80;17.10;;;;;;;-2.55;100.00;100015.73;105214;1271;75156;-75
2022/01/18 00:15:57;;;;;;;27.10;15.60;;;;;;;-2.56;100.00;100020.23;105238;1271;72479;-75
2022/01/18 00:18:23;;;;;;;28.20;17.70;;;;;;;-2.57;100.00;100019.02;105206;1271;61368;-76
2022/01/18 00:23:51;;;;;;;28.80;16.10;;;;;;;-2.61;100.00;100022.13;104668;1271;75802;-76
2022/01/18 00:26:18;;;;;;;27.30;17.20;;;;;;;-2.62;100.00;100028.21;105198;1271;69193;-77
2022/01/18 00:28:51;;;;;;;25.10;16.00;;;;;;;-2.65;100.00;100027.86;105267;1270;72638;-76
2022/01/18 00:36:38;;;;;;;31.60;18.20;;;;;;;-2.75;100.00;100034.27;105214;1271;75171;-75
2022/01/18 00:39:11;;;;;;;23.70;13.70;;;;;;;-2.78;100.00;100041.39;105168;1271;70174;-74
2022/01/18 00:41:39;;;;;;;24.90;13.10;;;;;;;-2.81;100.00;100050.25;105231;1271;73889;-75
2022/01/18 00:44:07;;;;;;;24.70;12.80;;;;;;;-2.83;100.00;100055.63;105203;1271;61232;-74
2022/01/18 00:46:35;;;;;;;29.70;13.00;;;;;;;-2.86;100.00;100059.09;105292;1271;61253;-74
2022/01/18 00:49:03;;;;;;;24.10;10.60;;;;;;;-2.88;100.00;100062.73;105200;1271;77026;-74
2022/01/18 00:51:38;;;;;;;24.00;10.50;;;;;;;-2.88;100.00;100068.30;105229;1271;69326;-74
2022/01/18 00:54:07;;;;;;;19.00;10.70;;;;;;;-2.88;100.00;100070.20;105258;1271;74339;-73
2022/01/18 00:56:39;;;;;;;23.30;12.10;;;;;;;-2.89;100.00;100074.20;105268;1270;61906;-74
2022/01/18 00:59:06;;;;;;;16.50;11.70;;;;;;;-2.90;100.00;100079.08;105055;1271;62014;-72
2022/01/18 01:01:34;;;;;;;27.80;17.40;;;;;;;-2.89;100.00;100085.50;105243;1271;76139;-75
2022/01/18 01:04:03;;;;;;;33.20;17.20;;;;;;;-2.87;100.00;100087.77;105314;1271;68537;-76
2022/01/18 01:06:31;;;;;;;36.50;21.20;;;;;;;-2.87;100.00;100090.73;104933;1272;71759;-77
2022/01/18 01:08:59;;;;;;;31.80;18.30;;;;;;;-2.88;100.00;100098.90;105242;1271;61256;-75
2022/01/18 01:11:26;;;;;;;24.00;15.10;;;;;;;-2.87;100.00;100100.81;105002;1271;234934;-76
2022/01/18 01:13:58;;;;;;;32.40;16.10;;;;;;;-2.89;100.00;100100.30;105489;1271;75085;-75
2022/01/18 01:43:48;;;;;;;51.30;22.00;;;;;;;-3.00;100.00;100093.09;108012;1271;69850;-75
2022/01/18 01:46:18;;;;;;;45.80;21.30;;;;;;;-3.02;100.00;100096.40;107794;1270;73226;-75
2022/01/18 01:48:51;;;;;;;58.50;22.90;;;;;;;-3.04;100.00;100101.59;107109;1271;61513;-76
2022/01/18 01:51:20;;;;;;;43.80;20.80;;;;;;;-3.05;100.00;100097.94;105570;1270;61289;-74
2022/01/18 01:53:47;;;;;;;40.40;20.40;;;;;;;-3.06;100.00;100098.79;105252;1271;73585;-73
2022/01/18 01:56:13;;;;;;;37.60;19.90;;;;;;;-3.07;100.00;100102.80;105291;1271;68358;-76
2022/01/18 01:58:40;;;;;;;34.80;18.90;;;;;;;-3.08;100.00;100105.74;105275;1271;73438;-74
2022/01/18 02:01:07;;;;;;;35.70;20.90;;;;;;;-3.08;100.00;100107.84;105273;1271;61421;-74
2022/01/18 02:03:34;;;;;;;27.50;15.00;;;;;;;-3.08;100.00;100107.84;105242;1271;61616;-73
2022/01/18 02:06:02;;;;;;;32.80;20.70;;;;;;;-3.08;100.00;100105.58;105241;1271;75485;-76
2022/01/18 02:08:29;;;;;;;34.10;19.20;;;;;;;-3.08;100.00;100103.33;104963;1271;70452;-74
2022/01/18 02:10:55;;;;;;;29.30;17.40;;;;;;;-3.09;100.00;100101.57;105185;1271;74512;-75
2022/01/18 02:13:22;;;;;;;29.90;19.10;;;;;;;-3.10;100.00;100095.83;105272;1271;61289;-73
2022/01/18 02:24:05;;;;;;;20.70;11.20;;;;;;;-3.13;100.00;100089.90;105248;1271;74304;-73
2022/01/18 02:26:32;;;;;;;23.30;8.80;;;;;;;-3.15;100.00;100088.85;105220;1271;61400;-73
2022/01/18 02:29:02;;;;;;;19.40;8.40;;;;;;;-3.18;100.00;100087.08;105514;1271;61353;-74
2022/01/18 02:31:30;;;;;;;18.80;8.00;;;;;;;-3.18;100.00;100090.73;105272;1271;75230;-73
2022/01/18 02:34:02;;;;;;;14.80;7.80;;;;;;;-3.19;100.00;100090.55;105204;1271;69116;-74
2022/01/18 02:36:30;;;;;;;22.60;8.40;;;;;;;-3.20;100.00;100089.51;105205;1271;73958;-73
2022/01/18 02:38:57;;;;;;;13.50;7.00;;;;;;;-3.20;100.00;100086.20;105234;1271;61393;-73
2022/01/18 02:41:29;;;;;;;15.20;8.50;;;;;;;-3.21;100.00;100086.90;105205;1271;61316;-74
2022/01/18 02:44:02;;;;;;;18.50;9.80;;;;;;;-3.23;100.00;100090.88;105238;1271;76455;-74
2022/01/18 02:46:29;;;;;;;22.20;12.90;;;;;;;-3.25;100.00;100099.02;104900;1271;69224;-74
2022/01/18 02:48:57;;;;;;;22.50;11.60;;;;;;;-3.26;100.00;100101.64;105183;1271;73415;-73
2022/01/18 02:51:24;;;;;;;26.80;14.30;;;;;;;-3.27;100.00;100094.15;104733;1271;1002704;-72
2022/01/18 02:54:00;;;;;;;21.90;12.70;;;;;;;-3.26;100.00;100088.08;105245;1271;61103;-73
2022/01/18 02:56:36;;;;;;;28.80;13.30;;;;;;;-3.26;100.00;100088.60;104964;1271;75053;-73
2022/01/18 03:04:28;;;;;;;19.20;11.80;;;;;;;-3.30;100.00;100089.61;105199;1271;61340;-73
2022/01/18 03:06:55;;;;;;;20.00;11.80;;;;;;;-3.31;100.00;100092.40;105195;1271;60963;-74
2022/01/18 03:09:22;;;;;;;21.30;10.50;;;;;;;-3.30;100.00;100093.44;105226;1271;75180;-72
2022/01/18 03:11:48;;;;;;;20.30;9.60;;;;;;;-3.29;100.00;100093.26;105204;1271;68688;-73
2022/01/18 03:14:15;;;;;;;20.30;9.00;;;;;;;-3.28;100.00;100095.20;105222;1271;73870;-73
2022/01/18 03:16:43;;;;;;;17.90;8.90;;;;;;;-3.27;100.00;100094.32;105173;1271;61435;-74
2022/01/18 03:19:09;;;;;;;21.70;9.10;;;;;;;-3.25;100.00;100099.55;105196;1271;61382;-73
2022/01/18 03:21:36;;;;;;;17.60;8.50;;;;;;;-3.23;100.00;100104.60;105196;1271;72872;-73
2022/01/18 03:24:19;;;;;;;13.80;6.80;;;;;;;-3.21;100.00;100117.48;104892;1271;70160;-74
2022/01/18 03:29:32;;;;;;;21.90;10.80;;;;;;;-3.11;100.00;100132.15;105224;1271;61298;-74
2022/01/18 03:31:59;;;;;;;18.90;8.60;;;;;;;-3.06;100.00;100132.53;105261;1271;61310;-73
2022/01/18 03:34:26;;;;;;;18.00;7.50;;;;;;;-3.00;100.00;100131.69;105217;1271;75437;-75
2022/01/18 03:36:53;;;;;;;13.30;6.80;;;;;;;-2.95;100.00;100131.02;105149;1271;68713;-73
2022/01/18 03:39:21;;;;;;;14.60;7.60;;;;;;;-2.89;100.00;100134.02;105236;1271;73329;-74
2022/01/18 03:41:54;;;;;;;18.50;7.60;;;;;;;-2.84;100.00;100136.13;104894;1274;61182;-73
2022/01/18 03:44:23;;;;;;;18.10;8.60;;;;;;;-2.79;100.00;100142.08;105296;1271;61294;-72
2022/01/18 03:46:50;;;;;;;19.40;7.70;;;;;;;-2.74;100.00;100137.23;105236;1271;76288;-73
2022/01/18 03:49:19;;;;;;;19.80;7.90;;;;;;;-2.69;100.00;100139.52;105230;1271;70552;-73
2022/01/18 03:51:46;;;;;;;17.30;8.50;;;;;;;-2.64;100.00;100143.73;105191;1271;73195;-73
2022/01/18 03:54:14;;;;;;;17.60;11.10;;;;;;;-2.58;100.00;100159.05;105173;1271;61453;-72
2022/01/18 03:56:40;;;;;;;24.90;12.40;;;;;;;-2.52;100.00;100167.95;105193;1271;61288;-73
2022/01/18 03:59:07;;;;;;;26.40;14.80;;;;;;;-2.48;100.00;100167.64;105229;1271;75199;-74
2022/01/18 04:01:33;;;;;;;22.20;12.90;;;;;;;-2.44;100.00;100162.26;104967;1274;61336;-73
2022/01/18 04:04:00;;;;;;;24.80;15.40;;;;;;;-2.41;100.00;100165.93;105177;1271;73582;-74
2022/01/18 04:06:27;;;;;;;24.60;14.70;;;;;;;-2.36;100.00;100160.73;105198;1271;61498;-74
2022/01/18 04:08:53;;;;;;;33.40;18.40;;;;;;;-2.32;100.00;100155.88;104987;1271;61164;-74
2022/01/18 04:11:20;;;;;;;28.30;18.40;;;;;;;-2.28;100.00;100156.74;105174;1271;61195;-75
2022/01/18 04:13:46;;;;;;;24.20;14.20;;;;;;;-2.25;100.00;100158.86;105221;1271;69255;-73
2022/01/18 04:16:14;;;;;;;30.70;17.60;;;;;;;-2.22;100.00;100158.52;105207;1271;61305;-73
2022/01/18 04:18:57;;;;;;;24.10;13.70;;;;;;;-2.19;100.00;100159.05;105199;1270;61317;-73
2022/01/18 04:26:57;;;;;;;17.00;9.20;;;;;;;-2.08;100.00;100180.16;102999;1271;1015845;-72
2022/01/18 04:29:25;;;;;;;13.60;6.80;;;;;;;-2.05;100.00;100181.39;105224;1271;73222;-72
2022/01/18 04:31:52;;;;;;;18.10;8.50;;;;;;;-2.02;100.00;100179.65;105435;1271;61382;-74
2022/01/18 04:34:19;;;;;;;13.00;7.10;;;;;;;-2.00;100.00;100180.36;105253;1271;61475;-73
2022/01/18 04:36:48;;;;;;;14.70;7.40;;;;;;;-1.97;100.00;100183.48;105360;1271;75702;-74
2022/01/18 04:39:16;;;;;;;16.70;7.60;;;;;;;-1.95;100.00;100192.38;105233;1271;70025;-73
2022/01/18 04:41:45;;;;;;;20.10;9.90;;;;;;;-1.93;100.00;100199.01;105194;1271;74440;-73
2022/01/18 04:48:24;;;;;;;24.60;15.00;;;;;;;-1.91;100.00;100203.37;105165;1271;61348;-74
2022/01/18 04:49:44;;;;;;;27.10;14.00;;;;;;;-1.89;100.00;100205.98;105200;1271;76116;-74
2022/01/18 04:52:12;;;;;;;28.40;14.80;;;;;;;-1.87;100.00;100214.86;104981;1272;70767;-75
2022/01/18 04:54:42;;;;;;;25.60;14.60;;;;;;;-1.86;100.00;100212.96;105048;1271;74502;-73
2022/01/18 04:59:37;;;;;;;23.80;12.00;;;;;;;-1.84;100.00;100218.55;105220;1271;61209;-74
2022/01/18 05:02:04;;;;;;;22.20;11.60;;;;;;;-1.83;100.00;100224.98;105190;1271;75448;-74
2022/01/18 05:04:30;;;;;;;26.10;13.20;;;;;;;-1.82;100.00;100221.00;104952;1271;68934;-73
2022/01/18 05:07:00;;;;;;;21.50;11.30;;;;;;;-1.81;100.00;100220.83;105178;1271;74281;-72
2022/01/18 05:09:27;;;;;;;15.40;8.00;;;;;;;-1.80;100.00;100216.63;105214;1271;61378;-73
2022/01/18 05:12:18;;;;;;;15.80;7.70;;;;;;;-1.78;100.00;100224.13;105148;1271;61881;-73
2022/01/18 05:14:42;;;;;;;22.60;9.80;;;;;;;-1.77;100.00;100225.70;105147;1271;75656;-73
2022/01/18 05:17:22;;;;;;;15.90;6.80;;;;;;;-1.75;100.00;100230.07;105168;1271;68606;-73
2022/01/18 05:20:14;;;;;;;16.30;6.60;;;;;;;-1.73;100.00;100227.46;105219;1271;73344;-73
2022/01/18 05:25:20;;;;;;;18.00;6.10;;;;;;;-1.70;100.00;100225.90;105146;1271;61285;-73
2022/01/18 05:27:47;;;;;;;13.50;6.60;;;;;;;-1.68;100.00;100227.99;105195;1270;75239;-72
2022/01/18 05:30:13;;;;;;;14.80;7.70;;;;;;;-1.66;100.00;100230.42;105184;1271;69519;-72
2022/01/18 05:32:40;;;;;;;19.40;7.90;;;;;;;-1.65;100.00;100236.20;105153;1271;61183;-74
2022/01/18 05:35:07;;;;;;;14.90;7.20;;;;;;;-1.63;100.00;100232.55;105169;1271;61276;-72
2022/01/18 05:37:34;;;;;;;13.60;6.30;;;;;;;-1.62;100.00;100234.45;105003;1271;61840;-73
2022/01/18 05:40:01;;;;;;;14.90;6.70;;;;;;;-1.60;100.00;100233.41;105178;1271;74738;-73
2022/01/18 05:42:27;;;;;;;14.00;6.20;;;;;;;-1.58;100.00;100232.36;105177;1271;61358;-74
2022/01/18 05:44:54;;;;;;;23.20;7.50;;;;;;;-1.57;100.00;100230.80;104925;1271;72719;-73
2022/01/18 05:47:20;;;;;;;15.60;6.20;;;;;;;-1.55;100.00;100231.69;105183;1271;61528;-73
2022/01/18 05:49:47;;;;;;;17.20;7.80;;;;;;;-1.55;100.00;100233.43;105186;1270;61277;-72
2022/01/18 05:52:13;;;;;;;15.70;7.10;;;;;;;-1.53;100.00;100239.34;105146;1271;61252;-73
2022/01/18 05:54:40;;;;;;;17.20;7.50;;;;;;;-1.52;100.00;100238.66;105143;1271;61173;-72
2022/01/18 05:57:06;;;;;;;12.90;5.40;;;;;;;-1.51;100.00;100239.52;104880;1272;61199;-73
2022/01/18 05:59:38;;;;;;;14.80;6.90;;;;;;;-1.50;100.00;100244.06;105144;1271;61327;-73
2022/01/18 06:02:31;;;;;;;17.90;6.80;;;;;;;-1.50;100.00;100242.16;105147;1270;61385;-72
2022/01/18 06:07:44;;;;;;;15.60;6.50;;;;;;;-1.49;100.00;100249.30;105156;1271;69139;-73
2022/01/18 06:10:10;;;;;;;17.30;7.10;;;;;;;-1.47;100.00;100256.10;102935;1270;1003735;-73
2022/01/18 06:12:39;;;;;;;17.00;7.00;;;;;;;-1.46;100.00;100258.89;105108;1271;61400;-73
2022/01/18 06:15:06;;;;;;;20.40;8.10;;;;;;;-1.45;100.00;100263.60;105195;1271;61252;-73
2022/01/18 06:17:33;;;;;;;16.40;7.90;;;;;;;-1.43;100.00;100269.00;105118;1270;74960;-74
2022/01/18 06:20:00;;;;;;;17.60;8.70;;;;;;;-1.41;100.00;100265.88;105304;1271;68877;-73
2022/01/18 06:22:27;;;;;;;17.80;6.90;;;;;;;-1.40;100.00;100264.30;105262;1271;74382;-73
2022/01/18 06:24:54;;;;;;;21.70;8.00;;;;;;;-1.39;100.00;100259.08;105183;1271;61313;-73
2022/01/18 06:27:20;;;;;;;18.00;8.70;;;;;;;-1.39;100.00;100260.48;105198;1271;61285;-74
2022/01/18 06:29:47;;;;;;;21.60;10.10;;;;;;;-1.40;100.00;100263.59;105206;1271;61191;-74
2022/01/18 06:32:13;;;;;;;25.00;10.20;;;;;;;-1.41;100.00;100266.39;105152;1271;61362;-73
2022/01/18 06:34:40;;;;;;;21.70;9.40;;;;;;;-1.41;100.00;100269.88;105189;1271;61265;-74
2022/01/18 06:37:07;;;;;;;22.90;9.60;;;;;;;-1.41;100.00;100276.50;104952;1274;61495;-73
2022/01/18 06:39:34;;;;;;;21.30;8.20;;;;;;;-1.40;100.00;100277.02;105178;1271;61259;-74
2022/01/18 06:42:00;;;;;;;15.80;6.90;;;;;;;-1.38;100.00;100284.17;105482;1271;75684;-74
2022/01/18 06:44:27;;;;;;;14.30;7.10;;;;;;;-1.36;100.00;100292.02;105426;1271;60282;-74
2022/01/18 06:46:53;;;;;;;15.40;6.10;;;;;;;-1.34;100.00;100294.83;105200;1271;71452;-73
2022/01/18 06:49:20;;;;;;;12.90;5.70;;;;;;;-1.32;100.00;100298.66;105303;1271;61342;-73
2022/01/18 06:51:47;;;;;;;17.60;5.70;;;;;;;-1.29;100.00;100302.85;105219;1271;61196;-74
2022/01/18 06:54:16;;;;;;;13.50;5.80;;;;;;;-1.25;100.00;100304.77;105231;1271;74743;-73
2022/01/18 06:56:46;;;;;;;16.10;6.20;;;;;;;-1.23;100.00;100301.98;105228;1271;68933;-74
2022/01/18 06:59:13;;;;;;;15.70;6.20;;;;;;;-1.22;100.00;100304.09;105178;1271;73364;-74
2022/01/18 07:01:41;;;;;;;20.90;6.30;;;;;;;-1.21;100.00;100310.20;105337;1271;61250;-73
2022/01/18 07:04:08;;;;;;;23.20;8.30;;;;;;;-1.20;100.00;100307.93;104971;1271;61452;-72
2022/01/18 07:06:35;;;;;;;21.60;9.00;;;;;;;-1.17;100.00;100302.02;105182;1271;74902;-73
2022/01/18 07:09:02;;;;;;;21.20;9.00;;;;;;;-1.15;100.00;100301.66;105225;1271;67514;-73
2022/01/18 07:11:29;;;;;;;19.60;8.40;;;;;;;-1.12;100.00;100310.04;105187;1271;73377;-73
2022/01/18 07:13:55;;;;;;;13.50;6.10;;;;;;;-1.10;100.00;100318.94;104993;1272;61211;-75
2022/01/18 07:16:22;;;;;;;20.70;7.20;;;;;;;-1.07;100.00;100322.77;105198;1271;61193;-72
2022/01/18 07:18:48;;;;;;;19.30;7.50;;;;;;;-1.04;100.00;100324.70;105191;1271;61371;-73
2022/01/18 07:21:15;;;;;;;24.70;7.70;;;;;;;-1.01;100.00;100325.74;105186;1271;61301;-74
2022/01/18 07:23:41;;;;;;;24.10;9.40;;;;;;;-0.98;100.00;100329.08;105182;1271;61301;-72
2022/01/18 07:26:08;;;;;;;17.20;7.80;;;;;;;-0.96;100.00;100331.86;105181;1271;61276;-72
2022/01/18 07:28:35;;;;;;;18.40;7.20;;;;;;;-0.92;100.00;100334.48;105226;1271;61345;-72
2022/01/18 07:31:01;;;;;;;14.50;8.10;;;;;;;-0.89;100.00;100331.17;105220;1271;61592;-73
2022/01/18 07:33:28;;;;;;;14.00;6.80;;;;;;;-0.86;100.00;100339.55;105215;1271;69322;-72
2022/01/18 07:35:55;;;;;;;19.40;7.60;;;;;;;-0.82;100.00;100346.52;105212;1271;74389;-73
2022/01/18 07:38:21;;;;;;;18.70;7.70;;;;;;;-0.82;100.00;100353.69;105184;1271;61389;-74
2022/01/18 07:40:53;;;;;;;22.00;8.70;;;;;;;-0.80;100.00;100359.10;105205;1271;61279;-75
2022/01/18 07:43:21;;;;;;;20.80;8.50;;;;;;;-0.75;100.00;100362.25;105232;1271;75589;-73
2022/01/18 07:45:51;;;;;;;21.40;7.80;;;;;;;-0.74;100.00;100369.75;105223;1271;67644;-71
2022/01/18 07:48:21;;;;;;;18.20;7.60;;;;;;;-0.70;100.00;100370.10;105290;1271;72857;-72
2022/01/18 07:50:47;;;;;;;;;;;;;;;-0.65;100.00;100373.77;105221;1271;62084;-73
2022/01/18 07:53:14;;;;;;;16.20;7.00;;;;;;;-0.59;100.00;100378.83;105211;1270;62125;-73
2022/01/18 07:55:41;;;;;;;16.20;8.10;;;;;;;-0.55;100.00;100382.86;105220;1271;76104;-73
2022/01/18 07:58:07;;;;;;;15.40;7.00;;;;;;;-0.53;100.00;100391.41;105224;1271;69341;-73
2022/01/18 08:00:34;;;;;;;13.20;6.90;;;;;;;-0.48;100.00;100389.84;105275;1271;62042;-73
2022/01/18 08:03:01;;;;;;;17.30;7.90;;;;;;;-0.42;100.00;100394.20;105180;1271;62002;-74
2022/01/18 08:05:27;;;;;;;13.70;7.20;;;;;;;-0.38;100.00;100399.80;105118;1271;62108;-73
2022/01/18 08:07:54;;;;;;;28.00;11.00;;;;;;;-0.33;100.00;100407.47;105248;1271;75504;-73
2022/01/18 08:10:21;;;;;;;17.50;7.90;;;;;;;-0.29;100.00;100408.00;105191;1271;69449;-73
2022/01/18 08:12:48;;;;;;;19.80;8.60;;;;;;;-0.23;100.00;100406.77;105159;1270;74242;-74
2022/01/18 08:15:19;;;;;;;16.40;9.20;;;;;;;-0.20;100.00;100407.48;105220;1271;62078;-75
2022/01/18 08:17:48;;;;;;;19.80;9.90;;;;;;;-0.16;100.00;100409.91;105214;1271;61944;-74
2022/01/18 08:20:16;;;;;;;17.00;10.30;;;;;;;-0.06;100.00;100410.08;105315;1271;76760;-72
2022/01/18 08:22:45;;;;;;;23.20;10.60;;;;;;;0.00;100.00;100413.40;105252;1271;70384;-74
2022/01/18 08:25:14;;;;;;;18.30;10.70;;;;;;;0.09;100.00;100419.85;105400;1271;73385;-73
2022/01/18 08:27:42;;;;;;;19.20;10.30;;;;;;;0.13;100.00;100423.52;105508;1271;61966;-73
2022/01/18 08:30:11;;;;;;;19.00;9.60;;;;;;;0.15;100.00;100424.21;105261;1274;62724;-73
2022/01/18 08:32:38;;;;;;;17.00;9.40;;;;;;;0.14;100.00;100423.86;105342;1271;77183;-73
2022/01/18 08:35:06;;;;;;;19.80;8.90;;;;;;;0.20;100.00;100429.61;105683;1271;69128;-73
2022/01/18 08:37:33;;;;;;;18.30;8.80;;;;;;;0.23;100.00;100441.48;105724;1271;73441;-72
2022/01/18 08:39:59;;;;;;;17.90;8.70;;;;;;;0.19;100.00;100446.92;105897;1271;62052;-72
2022/01/18 08:42:26;;;;;;;19.60;9.30;;;;;;;0.24;100.00;100453.38;106886;1271;61878;-73
2022/01/18 08:44:55;;;;;;;17.60;8.80;;;;;;;0.27;100.00;100458.27;108522;1271;76034;-73
2022/01/18 08:47:24;;;;;;;20.10;9.80;;;;;;;0.35;100.00;100455.47;108462;1271;70285;-73
2022/01/18 08:49:51;;;;;;;21.80;8.90;;;;;;;0.44;100.00;100451.08;108392;1270;71535;-73
2022/01/18 08:52:19;;;;;;;20.10;8.50;;;;;;;0.52;100.00;100449.14;108449;1271;62050;-73
2022/01/18 08:54:45;;;;;;;23.10;9.10;;;;;;;0.61;100.00;100454.53;107845;1271;60063;-72
2022/01/18 08:57:14;;;;;;;17.40;8.50;;;;;;;0.63;100.00;100462.22;105090;1271;77044;-73
2022/01/18 08:59:42;;;;;;;16.70;9.10;;;;;;;0.61;100.00;100469.21;105394;1271;67275;-73
2022/01/18 09:02:11;;;;;;;25.30;8.60;;;;;;;0.67;100.00;100475.67;105259;1271;72930;-72
2022/01/18 09:04:38;;;;;;;13.90;6.90;;;;;;;0.74;100.00;100476.70;105195;1271;62072;-72
2022/01/18 09:07:08;;;;;;;17.60;8.10;;;;;;;0.74;100.00;100474.77;105277;1271;62122;-73
2022/01/18 09:09:36;;;;;;;19.90;8.80;;;;;;;0.70;100.00;100478.29;105432;1271;77182;-73
2022/01/18 09:12:03;;;;;;;23.50;12.40;;;;;;;0.74;100.00;100481.07;105198;1271;69407;-73
2022/01/18 09:14:30;;;;;;;18.20;9.10;;;;;;;0.82;100.00;100493.13;104933;1271;73181;-72
2022/01/18 09:16:56;;;;;;;23.50;10.90;;;;;;;0.94;100.00;100502.00;104975;1271;62081;-73
2022/01/18 09:19:23;;;;;;;22.40;9.30;;;;;;;0.94;100.00;100505.68;105146;1271;62241;-73
2022/01/18 09:21:49;;;;;;;18.70;9.80;;;;;;;0.91;100.00;100512.33;105182;1271;74527;-73
2022/01/18 09:24:16;;;;;;;17.10;8.00;;;;;;;0.90;100.00;100514.09;105225;1271;69121;-71
2022/01/18 09:26:43;;;;;;;16.60;7.50;;;;;;;0.86;100.00;100515.67;105160;1271;73736;-75
2022/01/18 09:29:11;;;;;;;13.50;6.70;;;;;;;0.87;100.00;100515.50;105127;1271;62153;-72
2022/01/18 09:31:38;;;;;;;21.60;7.80;;;;;;;0.84;100.00;100517.08;105253;1271;62007;-72
2022/01/18 09:34:05;;;;;;;15.70;7.60;;;;;;;0.81;100.00;100516.56;105237;1271;77139;-73
2022/01/18 09:36:32;;;;;;;17.30;7.40;;;;;;;0.81;100.00;100513.41;105195;1271;69193;-74
2022/01/18 09:38:59;;;;;;;18.00;9.20;;;;;;;0.79;100.00;100512.02;105192;1271;74249;-72
2022/01/18 09:41:29;;;;;;;24.20;8.80;;;;;;;0.77;100.00;100514.98;105203;1271;62076;-72
2022/01/18 09:43:57;;;;;;;18.00;8.30;;;;;;;0.77;100.00;100520.95;105191;1271;62103;-73
2022/01/18 09:46:26;;;;;;;22.50;9.40;;;;;;;0.74;100.00;100524.98;105198;1271;77200;-73
2022/01/18 09:48:55;;;;;;;18.70;7.60;;;;;;;0.69;100.00;100525.86;105161;1270;69657;-73
2022/01/18 09:51:23;;;;;;;15.10;6.70;;;;;;;0.66;100.00;100526.73;105368;1271;71290;-71
2022/01/18 09:53:51;;;;;;;17.20;7.50;;;;;;;0.63;100.00;100525.52;105239;1271;62304;-73
2022/01/18 09:56:17;;;;;;;17.50;7.20;;;;;;;0.58;100.00;100532.19;105115;1271;62151;-71
2022/01/18 09:58:45;;;;;;;20.30;7.70;;;;;;;0.53;100.00;100537.96;105189;1271;76991;-71
2022/01/18 10:01:12;;;;;;;17.60;7.90;;;;;;;0.55;100.00;100538.31;105062;1271;68108;-73
2022/01/18 10:03:41;;;;;;;22.50;8.20;;;;;;;0.55;100.00;100538.83;105226;1271;73639;-72
2022/01/18 10:06:10;;;;;;;16.40;7.30;;;;;;;0.53;100.00;100535.52;105329;1271;62063;-73
2022/01/18 10:08:40;;;;;;;19.60;7.90;;;;;;;0.53;100.00;100537.80;105279;1271;62133;-73
2022/01/18 10:11:17;;;;;;;21.10;8.40;;;;;;;0.51;100.00;100538.84;105332;1271;75945;-72
2022/01/18 10:13:46;;;;;;;19.60;7.80;;;;;;;0.52;100.00;100539.71;105239;1271;69196;-73
2022/01/18 10:16:16;;;;;;;16.30;6.90;;;;;;;0.48;100.00;100539.36;105365;1271;73174;-73
2022/01/18 10:18:51;;;;;;;19.80;8.50;;;;;;;0.46;100.00;100538.84;105223;1271;62659;-73
2022/01/18 10:21:44;;;;;;;21.10;8.10;;;;;;;0.44;100.00;100537.10;105231;1271;62482;-75
2022/01/18 10:24:21;;;;;;;16.50;7.30;;;;;;;0.43;100.00;100535.88;105099;1271;76961;-72
2022/01/18 10:26:50;;;;;;;18.20;8.20;;;;;;;0.43;100.00;100539.89;105197;1271;70227;-74
2022/01/18 10:29:22;;;;;;;16.00;7.70;;;;;;;0.46;100.00;100541.11;105216;1271;74785;-74
2022/01/18 10:37:15;;;;;;;23.40;9.50;;;;;;;0.50;100.00;100534.29;105208;1271;75954;-74
2022/01/18 10:39:48;;;;;;;20.30;9.00;;;;;;;0.48;100.00;100531.33;105215;1271;69153;-74
2022/01/18 10:42:31;;;;;;;21.90;8.80;;;;;;;0.48;100.00;100535.86;105193;1271;73173;-72
2022/01/18 10:45:05;;;;;;;27.70;11.70;;;;;;;0.50;100.00;100541.64;105150;1271;62095;-73
2022/01/18 10:47:33;;;;;;;29.40;10.80;;;;;;;0.52;100.00;100549.52;105278;1271;61998;-71
2022/01/18 10:50:09;;;;;;;20.80;10.10;;;;;;;0.51;100.00;100548.29;105179;1271;77037;-73
2022/01/18 10:52:36;;;;;;;28.80;14.20;;;;;;;0.51;100.00;100551.96;105258;1271;69029;-72
2022/01/18 10:55:04;;;;;;;21.60;10.50;;;;;;;0.55;100.00;100554.23;105010;1270;74148;-72
2022/01/18 10:57:36;;;;;;;25.60;10.60;;;;;;;0.51;100.00;100553.89;105277;1271;62070;-72
2022/01/18 11:00:03;;;;;;;20.20;9.90;;;;;;;0.51;100.00;100553.00;104952;1271;62236;-74
2022/01/18 11:02:38;;;;;;;19.70;7.70;;;;;;;0.50;100.00;100552.13;105215;1271;62190;-73
2022/01/18 11:05:19;;;;;;;18.10;7.70;;;;;;;0.48;100.00;100559.31;105207;1271;70437;-72
2022/01/18 11:07:47;;;;;;;19.90;8.40;;;;;;;0.43;100.00;100557.37;105238;1270;73172;-73
2022/01/18 11:10:16;;;;;;;31.00;15.40;;;;;;;0.40;100.00;100560.52;104986;1271;62191;-73
2022/01/18 11:12:49;;;;;;;29.30;10.90;;;;;;;0.41;100.00;100559.30;105240;1271;62492;-73
2022/01/18 11:15:19;;;;;;;29.10;15.20;;;;;;;0.44;100.00;100558.09;105186;1271;76852;-73
2022/01/18 11:17:51;;;;;;;22.40;11.30;;;;;;;0.42;100.00;100558.25;105228;1271;69305;-72
2022/01/18 11:20:19;;;;;;;27.40;12.10;;;;;;;0.41;100.00;100553.88;105329;1271;74499;-73
2022/01/18 11:22:48;;;;;;;26.10;13.30;;;;;;;0.45;100.00;100555.11;105300;1271;62206;-73
2022/01/18 11:25:17;;;;;;;18.70;10.50;;;;;;;0.47;100.00;100560.16;105191;1270;62176;-74
2022/01/18 11:27:49;;;;;;;21.50;10.50;;;;;;;0.47;100.00;100559.81;105178;1271;76517;-74
2022/01/18 11:30:25;;;;;;;24.00;10.00;;;;;;;0.45;100.00;100565.08;105163;1271;68149;-73
2022/01/18 11:32:54;;;;;;;23.40;10.50;;;;;;;0.45;100.00;100570.67;105111;1271;74296;-74
2022/01/18 11:35:29;;;;;;;23.40;11.50;;;;;;;0.42;100.00;100571.19;105012;1271;62111;-72
2022/01/18 11:38:09;;;;;;;21.40;11.00;;;;;;;0.44;100.00;100575.04;105199;1271;62165;-73
2022/01/18 11:41:02;;;;;;;38.20;21.80;;;;;;;0.47;100.00;100572.95;105075;1271;77294;-72
2022/01/18 11:43:42;;;;;;;30.50;17.70;;;;;;;0.57;100.00;100569.26;104627;1279;69131;-73
2022/01/18 11:46:26;;;;;;;34.60;18.10;;;;;;;0.70;100.00;100569.77;104533;1280;71357;-73
2022/01/18 11:49:08;;;;;;;36.20;18.70;;;;;;;0.75;100.00;100569.40;104610;1279;62299;-75
2022/01/18 11:52:03;;;;;;;22.50;11.90;;;;;;;0.73;100.00;100569.58;105173;1279;62063;-71
2022/01/18 11:57:23;;;;;;;20.30;9.60;;;;;;;0.72;100.00;100573.09;104696;1278;70092;-73
2022/01/18 11:59:58;;;;;;;19.00;8.40;;;;;;;0.74;100.00;100577.45;104496;1279;73396;-74
2022/01/18 12:02:26;;;;;;;17.80;9.80;;;;;;;0.72;100.00;100584.81;104530;1279;62088;-75
2022/01/18 12:05:04;;;;;;;30.80;13.00;;;;;;;0.66;100.00;100590.59;104536;1279;62206;-74
2022/01/18 12:07:36;;;;;;;26.70;14.00;;;;;;;0.67;100.00;100599.52;104517;1279;75767;-74
2022/01/18 12:10:09;;;;;;;20.00;11.20;;;;;;;0.75;100.00;100604.92;104564;1279;69037;-75
2022/01/18 12:12:46;;;;;;;21.80;10.00;;;;;;;0.83;100.00;100607.36;104597;1279;74231;-74
2022/01/18 12:15:16;;;;;;;20.60;12.20;;;;;;;0.90;100.00;100608.23;104523;1279;62280;-73
2022/01/18 12:17:50;;;;;;;25.80;11.90;;;;;;;0.95;100.00;100604.70;104540;1279;62005;-73
2022/01/18 12:20:35;;;;;;;23.60;12.00;;;;;;;0.99;100.00;100601.91;104639;1271;76779;-73
2022/01/18 12:23:03;;;;;;;20.10;10.30;;;;;;;1.00;100.00;100606.98;105120;1271;69380;-74
2022/01/18 12:25:34;;;;;;;25.50;13.80;;;;;;;1.04;100.00;100608.73;105106;1271;73157;-73
2022/01/18 12:28:48;;;;;;;20.80;10.80;;;;;;;1.05;100.00;100607.86;105083;1271;62062;-74
2022/01/18 12:31:51;;;;;;;24.70;11.70;;;;;;;1.08;100.00;100607.14;105035;1271;62151;-75